createdAt,value
2018-12-16T00:01:05.481Z,-5.58
2018-12-16T00:03:34.675Z,-5.66
2018-12-16T00:06:03.953Z,-5.82
2018-12-16T00:08:33.067Z,-5.75
2018-12-16T00:11:02.169Z,-5.71
2018-12-16T00:13:31.359Z,-5.77
2018-12-16T00:16:00.441Z,-5.62
2018-12-16T00:18:29.949Z,-5.73
2018-12-16T00:20:59.043Z,-5.78
2018-12-16T00:23:28.147Z,-5.64
2018-12-16T00:25:57.313Z,-5.61
2018-12-16T00:28:26.469Z,-5.83
2018-12-16T00:30:55.623Z,-5.83
2018-12-16T00:33:24.839Z,-5.85
2018-12-16T00:35:54.008Z,-5.86
2018-12-16T00:38:23.118Z,-5.73
2018-12-16T00:40:52.226Z,-5.73
2018-12-16T00:43:21.326Z,-5.84
2018-12-16T00:45:50.507Z,-5.79
2018-12-16T00:48:19.611Z,-5.77
2018-12-16T00:50:48.706Z,-5.91
2018-12-16T00:53:18.091Z,-5.91
2018-12-16T00:55:47.306Z,-6.00
2018-12-16T00:58:16.494Z,-5.87
2018-12-16T01:00:45.936Z,-5.81
2018-12-16T01:03:15.327Z,-5.92
2018-12-16T01:05:44.509Z,-5.83
2018-12-16T01:08:13.690Z,-5.78
2018-12-16T01:10:42.927Z,-5.63
2018-12-16T01:13:12.106Z,-5.67
2018-12-16T01:15:41.308Z,-5.66
2018-12-16T01:18:10.434Z,-5.64
2018-12-16T01:20:39.525Z,-5.66
2018-12-16T01:23:08.608Z,-5.73
2018-12-16T01:25:37.707Z,-5.49
2018-12-16T01:28:06.860Z,-5.50
2018-12-16T01:30:36.058Z,-5.71
2018-12-16T01:33:05.511Z,-6.23
2018-12-16T01:35:34.612Z,-5.77
2018-12-16T01:38:03.993Z,-5.74
2018-12-16T01:40:33.077Z,-5.73
2018-12-16T01:43:02.183Z,-5.59
2018-12-16T01:45:31.373Z,-5.71
2018-12-16T01:48:00.489Z,-5.66
2018-12-16T01:50:29.742Z,-5.74
2018-12-16T01:52:58.847Z,-5.69
2018-12-16T01:55:27.969Z,-5.72
2018-12-16T01:57:57.045Z,-5.73
2018-12-16T02:00:26.444Z,-5.82
2018-12-16T02:02:55.627Z,-5.80
2018-12-16T02:05:24.726Z,-5.90
2018-12-16T02:07:54.113Z,-5.91
2018-12-16T02:10:23.338Z,-5.73
2018-12-16T02:12:52.408Z,-5.66
2018-12-16T02:15:21.559Z,-5.76
2018-12-16T02:17:50.742Z,-5.64
2018-12-16T02:20:19.915Z,-5.68
2018-12-16T02:22:49.031Z,-5.60
2018-12-16T02:25:18.304Z,-5.65
2018-12-16T02:27:47.363Z,-5.69
2018-12-16T02:30:21.993Z,-5.45
2018-12-16T02:32:51.221Z,-5.43
2018-12-16T02:35:20.289Z,-5.61
2018-12-16T02:37:49.629Z,-5.63
2018-12-16T02:40:18.718Z,-5.66
2018-12-16T02:42:48.014Z,-5.56
2018-12-16T02:45:17.099Z,-5.67
2018-12-16T02:47:49.603Z,-5.65
2018-12-16T02:50:18.848Z,-5.67
2018-12-16T02:52:47.904Z,-5.69
2018-12-16T02:55:17.083Z,-5.75
2018-12-16T02:57:46.189Z,-5.72
2018-12-16T03:00:15.419Z,-5.64
2018-12-16T03:02:44.588Z,-5.52
2018-12-16T03:05:13.780Z,-5.53
2018-12-16T03:07:42.863Z,-5.46
2018-12-16T03:10:12.159Z,-5.45
2018-12-16T03:12:41.322Z,-5.32
2018-12-16T03:15:10.510Z,-5.38
2018-12-16T03:17:39.586Z,-5.47
2018-12-16T03:20:08.973Z,-5.56
2018-12-16T03:22:38.107Z,-5.52
2018-12-16T03:25:07.318Z,-5.42
2018-12-16T03:27:36.551Z,-5.52
2018-12-16T03:30:07.451Z,-5.49
2018-12-16T03:32:36.720Z,-5.41
2018-12-16T03:35:06.114Z,-5.14
2018-12-16T03:37:35.190Z,-5.09
2018-12-16T03:40:04.760Z,-5.11
2018-12-16T03:42:34.531Z,-5.06
2018-12-16T03:45:04.208Z,-5.03
2018-12-16T03:47:33.321Z,-5.25
2018-12-16T03:50:02.703Z,-5.49
2018-12-16T03:52:31.758Z,-5.53
2018-12-16T03:55:00.841Z,-5.46
2018-12-16T03:57:30.000Z,-5.46
2018-12-16T03:59:59.102Z,-5.44
2018-12-16T04:02:28.163Z,-5.43
2018-12-16T04:04:57.379Z,-5.28
2018-12-16T04:07:26.440Z,-5.10
2018-12-16T04:09:56.158Z,-5.18
2018-12-16T04:12:25.238Z,-5.25
2018-12-16T04:14:54.602Z,-5.26
2018-12-16T04:17:23.872Z,-5.38
2018-12-16T04:19:52.999Z,-5.40
2018-12-16T04:22:22.290Z,-5.49
2018-12-16T04:24:51.422Z,-5.54
2018-12-16T04:27:20.540Z,-5.40
2018-12-16T04:29:49.624Z,-5.56
2018-12-16T04:32:18.754Z,-5.40
2018-12-16T04:34:47.872Z,-5.31
2018-12-16T04:37:16.964Z,-5.36
2018-12-16T04:39:46.140Z,-5.56
2018-12-16T04:42:15.231Z,-5.36
2018-12-16T04:44:44.331Z,-5.41
2018-12-16T04:47:13.561Z,-5.25
2018-12-16T04:49:42.743Z,-5.33
2018-12-16T04:52:11.833Z,-5.28
2018-12-16T04:54:40.918Z,-5.35
2018-12-16T04:57:10.012Z,-5.30
2018-12-16T04:59:39.088Z,-5.48
2018-12-16T05:02:08.303Z,-5.43
2018-12-16T05:04:37.435Z,-5.37
2018-12-16T05:07:06.542Z,-5.10
2018-12-16T05:09:35.705Z,-5.22
2018-12-16T05:12:04.816Z,-5.18
2018-12-16T05:14:33.907Z,-5.26
2018-12-16T05:17:02.996Z,-5.22
2018-12-16T05:19:32.087Z,-5.17
2018-12-16T05:22:01.242Z,-5.17
2018-12-16T05:24:30.366Z,-5.22
2018-12-16T05:26:59.739Z,-5.30
2018-12-16T05:29:28.976Z,-5.26
2018-12-16T05:31:58.072Z,-5.20
2018-12-16T05:34:27.259Z,-5.14
2018-12-16T05:36:56.368Z,-4.63
2018-12-16T05:39:25.552Z,-4.38
2018-12-16T05:41:54.646Z,-4.60
2018-12-16T05:44:23.962Z,-4.80
2018-12-16T05:46:53.052Z,-4.92
2018-12-16T05:49:22.154Z,-4.97
2018-12-16T05:51:51.246Z,-4.97
2018-12-16T05:54:20.351Z,-4.94
2018-12-16T05:56:49.593Z,-4.97
2018-12-16T05:59:18.727Z,-5.03
2018-12-16T06:01:48.146Z,-4.90
2018-12-16T06:04:17.509Z,-4.96
2018-12-16T06:06:46.665Z,-4.81
2018-12-16T06:09:15.839Z,-4.85
2018-12-16T06:11:45.145Z,-4.89
2018-12-16T06:14:14.239Z,-4.92
2018-12-16T06:16:43.323Z,-4.87
2018-12-16T06:19:12.425Z,-4.85
2018-12-16T06:21:41.517Z,-4.83
2018-12-16T06:24:10.597Z,-4.84
2018-12-16T06:26:41.067Z,-4.87
2018-12-16T06:29:10.363Z,-4.80
2018-12-16T06:31:39.448Z,-4.72
2018-12-16T06:34:08.643Z,-4.71
2018-12-16T06:36:37.725Z,-4.76
2018-12-16T06:39:07.122Z,-4.68
2018-12-16T06:41:36.312Z,-4.69
2018-12-16T06:44:05.414Z,-4.62
2018-12-16T06:46:34.505Z,-4.67
2018-12-16T06:49:03.802Z,-4.64
2018-12-16T06:51:32.870Z,-4.62
2018-12-16T06:54:02.608Z,-4.63
2018-12-16T06:56:32.086Z,-4.65
2018-12-16T06:59:01.263Z,-4.64
2018-12-16T07:01:30.386Z,-4.64
2018-12-16T07:03:59.521Z,-4.54
2018-12-16T07:06:28.750Z,-4.48
2018-12-16T07:08:57.914Z,-4.55
2018-12-16T07:11:27.024Z,-4.46
2018-12-16T07:13:56.114Z,-4.47
2018-12-16T07:16:25.425Z,-4.46
2018-12-16T07:18:54.588Z,-4.42
2018-12-16T07:21:23.695Z,-4.45
2018-12-16T07:23:52.786Z,-4.31
2018-12-16T07:26:21.895Z,-4.32
2018-12-16T07:28:51.079Z,-4.45
2018-12-16T07:31:20.178Z,-4.28
2018-12-16T07:33:49.361Z,-4.21
2018-12-16T07:36:18.652Z,-4.21
2018-12-16T07:38:47.803Z,-4.12
2018-12-16T07:41:16.979Z,-3.99
2018-12-16T07:43:46.166Z,-3.81
2018-12-16T07:46:15.365Z,-3.76
2018-12-16T07:48:44.595Z,-3.76
2018-12-16T07:51:13.830Z,-3.77
2018-12-16T07:53:42.971Z,-3.80
2018-12-16T07:56:12.182Z,-3.89
2018-12-16T07:58:41.372Z,-4.04
2018-12-16T08:01:10.536Z,-4.05
2018-12-16T08:03:39.694Z,-3.79
2018-12-16T08:06:09.006Z,-3.67
2018-12-16T08:08:38.164Z,-3.57
2018-12-16T08:11:07.530Z,-3.61
2018-12-16T08:13:36.586Z,-3.50
2018-12-16T08:16:05.672Z,-3.48
2018-12-16T08:18:34.817Z,-3.33
2018-12-16T08:21:04.105Z,-3.22
2018-12-16T08:23:33.214Z,-3.22
2018-12-16T08:26:02.319Z,-3.15
2018-12-16T08:28:31.518Z,-3.10
2018-12-16T08:31:00.604Z,-3.12
2018-12-16T08:33:29.801Z,-3.14
2018-12-16T08:35:58.904Z,-3.17
2018-12-16T08:38:27.990Z,-3.35
2018-12-16T08:40:57.080Z,-3.17
2018-12-16T08:43:26.196Z,-2.98
2018-12-16T08:45:55.334Z,-2.85
2018-12-16T08:48:24.426Z,-3.00
2018-12-16T08:50:53.591Z,-3.00
2018-12-16T08:53:22.673Z,-3.02
2018-12-16T08:55:51.778Z,-3.01
2018-12-16T08:58:20.897Z,-2.80
2018-12-16T09:00:50.058Z,-2.90
2018-12-16T09:03:19.211Z,-2.88
2018-12-16T09:05:49.669Z,-2.64
2018-12-16T09:08:18.763Z,-2.64
2018-12-16T09:10:47.898Z,-2.86
2018-12-16T09:13:17.081Z,-2.87
2018-12-16T09:15:46.173Z,-2.92
2018-12-16T09:18:15.398Z,-2.78
2018-12-16T09:20:44.481Z,-2.64
2018-12-16T09:23:13.663Z,-2.58
2018-12-16T09:25:42.762Z,-2.85
2018-12-16T09:28:11.965Z,-2.69
2018-12-16T09:30:41.153Z,-2.57
2018-12-16T09:33:10.275Z,-2.75
2018-12-16T09:35:39.381Z,-2.76
2018-12-16T09:38:08.457Z,-2.89
2018-12-16T09:40:37.571Z,-2.71
2018-12-16T09:43:06.664Z,-2.51
2018-12-16T09:45:35.767Z,-2.45
2018-12-16T09:48:05.079Z,-2.44
2018-12-16T09:50:34.461Z,-2.62
2018-12-16T09:53:03.814Z,-2.75
2018-12-16T09:55:32.935Z,-2.56
2018-12-16T09:58:02.093Z,-2.39
2018-12-16T10:00:31.478Z,-2.38
2018-12-16T10:03:00.610Z,-2.15
2018-12-16T10:05:30.070Z,-2.27
2018-12-16T10:07:59.235Z,-2.19
2018-12-16T10:10:28.366Z,-2.07
2018-12-16T10:12:57.563Z,-2.07
2018-12-16T10:15:26.738Z,-2.27
2018-12-16T10:17:56.064Z,-2.13
2018-12-16T10:20:25.155Z,-2.21
2018-12-16T10:22:54.251Z,-2.16
2018-12-16T10:25:23.528Z,-2.08
2018-12-16T10:27:53.050Z,-2.06
2018-12-16T10:30:22.358Z,-2.08
2018-12-16T10:32:51.495Z,-2.01
2018-12-16T10:35:20.726Z,-1.87
2018-12-16T10:37:49.813Z,-2.03
2018-12-16T10:40:18.942Z,-1.94
2018-12-16T10:42:48.120Z,-1.91
2018-12-16T10:45:17.324Z,-1.75
2018-12-16T10:47:46.550Z,-1.79
2018-12-16T10:50:15.776Z,-1.96
2018-12-16T10:52:44.917Z,-1.86
2018-12-16T10:55:14.137Z,-1.62
2018-12-16T10:57:43.217Z,-1.50
2018-12-16T11:00:18.142Z,-1.43
2018-12-16T11:02:47.346Z,-1.20
2018-12-16T11:05:17.084Z,-1.25
2018-12-16T11:07:46.198Z,-1.16
2018-12-16T11:10:15.348Z,-1.10
2018-12-16T11:12:44.936Z,-1.17
2018-12-16T11:15:14.262Z,-1.09
2018-12-16T11:17:43.646Z,-1.08
2018-12-16T11:20:13.478Z,-1.12
2018-12-16T11:22:42.686Z,-1.05
2018-12-16T11:25:14.199Z,-1.03
2018-12-16T11:27:43.336Z,-1.13
2018-12-16T11:30:12.938Z,-1.08
2018-12-16T11:32:42.106Z,-1.34
2018-12-16T11:35:11.383Z,-1.17
2018-12-16T11:37:40.600Z,-1.06
2018-12-16T11:40:09.833Z,-0.99
2018-12-16T11:42:39.002Z,-0.95
2018-12-16T11:45:08.315Z,-0.95
2018-12-16T11:47:37.434Z,-1.09
2018-12-16T11:50:06.812Z,-1.33
2018-12-16T11:52:36.121Z,-1.49
2018-12-16T11:55:12.511Z,-1.28
2018-12-16T11:57:36.979Z,-1.10
2018-12-16T12:00:07.000Z,-0.99
2018-12-16T12:02:36.193Z,-0.98
2018-12-16T12:05:05.890Z,-1.06
2018-12-16T12:07:35.247Z,-0.95
2018-12-16T12:10:05.329Z,-0.92
2018-12-16T12:12:34.501Z,-0.83
2018-12-16T12:15:03.701Z,-0.78
2018-12-16T12:17:32.905Z,-0.68
2018-12-16T12:20:02.496Z,-0.59
2018-12-16T12:22:31.911Z,-0.65
2018-12-16T12:25:01.095Z,-0.65
2018-12-16T12:27:30.204Z,-0.58
2018-12-16T12:29:59.343Z,-0.46
2018-12-16T12:32:28.491Z,-0.33
2018-12-16T12:34:57.694Z,-0.38
2018-12-16T12:37:26.979Z,-0.42
2018-12-16T12:39:56.064Z,-0.33
2018-12-16T12:42:25.495Z,-0.37
2018-12-16T12:44:54.687Z,-0.28
2018-12-16T12:47:23.871Z,-0.35
2018-12-16T12:49:52.951Z,-0.41
2018-12-16T12:52:22.134Z,-0.45
2018-12-16T12:54:51.521Z,-0.61
2018-12-16T12:57:20.765Z,-0.64
2018-12-16T12:59:49.838Z,-0.64
2018-12-16T13:02:20.155Z,-0.68
2018-12-16T13:04:49.407Z,-0.71
2018-12-16T13:07:18.601Z,-0.62
2018-12-16T13:09:47.687Z,-0.42
2018-12-16T13:12:16.875Z,-0.53
2018-12-16T13:14:46.098Z,-0.65
2018-12-16T13:17:15.282Z,-0.49
2018-12-16T13:19:44.710Z,-0.56
2018-12-16T13:22:13.882Z,-0.56
2018-12-16T13:24:54.566Z,-0.57
2018-12-16T13:27:23.934Z,-0.49
2018-12-16T13:29:53.149Z,-0.41
2018-12-16T13:32:22.274Z,-0.41
2018-12-16T13:34:51.584Z,-0.36
2018-12-16T13:37:20.903Z,-0.35
2018-12-16T13:39:50.230Z,-0.22
2018-12-16T13:42:19.339Z,-0.23
2018-12-16T13:44:48.740Z,-0.25
2018-12-16T13:47:17.862Z,-0.21
2018-12-16T13:49:47.623Z,-0.21
2018-12-16T13:52:18.448Z,-0.17
2018-12-16T13:54:47.776Z,-0.16
2018-12-16T13:57:16.908Z,-0.17
2018-12-16T13:59:46.001Z,-0.23
2018-12-16T14:02:15.389Z,-0.15
2018-12-16T14:04:44.666Z,-0.09
2018-12-16T14:07:13.963Z,-0.14
2018-12-16T14:09:44.077Z,-0.15
2018-12-16T14:12:13.390Z,-0.14
2018-12-16T14:14:42.498Z,-0.08
2018-12-16T14:17:11.600Z,-0.06
2018-12-16T14:19:40.774Z,-0.08
2018-12-16T14:22:10.994Z,-0.09
2018-12-16T14:24:40.235Z,-0.10
2018-12-16T14:27:09.613Z,-0.10
2018-12-16T14:29:38.930Z,-0.09
2018-12-16T14:32:08.029Z,-0.06
2018-12-16T14:34:37.488Z,-0.09
2018-12-16T14:37:07.121Z,-0.02
2018-12-16T14:39:36.526Z,-0.04
2018-12-16T14:42:05.823Z,-0.01
2018-12-16T14:44:35.202Z,0.10
2018-12-16T14:47:04.635Z,0.14
2018-12-16T14:49:33.854Z,0.20
2018-12-16T14:52:03.153Z,0.25
2018-12-16T14:54:32.275Z,0.26
2018-12-16T14:57:01.429Z,0.29
2018-12-16T14:59:30.736Z,0.29
2018-12-16T15:01:59.943Z,0.29
2018-12-16T15:04:29.363Z,0.30
2018-12-16T15:06:58.967Z,0.30
2018-12-16T15:09:28.160Z,0.30
2018-12-16T15:11:57.318Z,0.25
2018-12-16T15:14:26.448Z,0.19
2018-12-16T15:16:55.596Z,0.26
2018-12-16T15:19:24.778Z,0.23
2018-12-16T15:21:54.111Z,0.19
2018-12-16T15:24:23.310Z,0.20
2018-12-16T15:26:52.724Z,0.19
2018-12-16T15:29:22.048Z,0.18
2018-12-16T15:31:51.292Z,0.21
2018-12-16T15:34:20.411Z,0.24
2018-12-16T15:36:49.698Z,0.30
2018-12-16T15:39:19.028Z,0.31
2018-12-16T15:41:48.278Z,0.34
2018-12-16T15:44:17.484Z,0.49
2018-12-16T15:46:46.682Z,0.72
2018-12-16T15:49:15.892Z,0.79
2018-12-16T15:51:44.991Z,0.86
2018-12-16T15:54:14.091Z,0.83
2018-12-16T15:56:43.281Z,0.94
2018-12-16T15:59:12.535Z,0.89
2018-12-16T16:01:41.695Z,0.92
2018-12-16T16:04:10.829Z,0.94
2018-12-16T16:06:39.931Z,0.94
2018-12-16T16:09:09.088Z,1.14
2018-12-16T16:11:38.308Z,1.29
2018-12-16T16:14:07.608Z,1.17
2018-12-16T16:16:37.023Z,1.21
2018-12-16T16:19:06.186Z,1.24
2018-12-16T16:21:35.273Z,1.17
2018-12-16T16:24:04.803Z,1.23
2018-12-16T16:26:33.892Z,1.28
2018-12-16T16:29:03.179Z,1.44
2018-12-16T16:31:32.275Z,1.40
2018-12-16T16:34:01.444Z,1.43
2018-12-16T16:36:30.611Z,1.41
2018-12-16T16:38:59.739Z,1.26
2018-12-16T16:41:28.826Z,1.29
2018-12-16T16:43:57.900Z,1.39
2018-12-16T16:46:27.152Z,1.34
2018-12-16T16:48:56.279Z,1.20
2018-12-16T16:51:25.353Z,1.15
2018-12-16T16:53:54.551Z,1.09
2018-12-16T16:56:23.761Z,1.20
2018-12-16T16:58:52.902Z,1.39
2018-12-16T17:01:22.023Z,1.34
2018-12-16T17:03:51.146Z,1.38
2018-12-16T17:06:20.247Z,1.42
2018-12-16T17:08:49.368Z,1.47
2018-12-16T17:11:18.950Z,1.41
2018-12-16T17:13:48.321Z,1.39
2018-12-16T17:16:17.540Z,1.37
2018-12-16T17:18:46.705Z,1.40
2018-12-16T17:21:15.830Z,1.34
2018-12-16T17:23:44.954Z,1.27
2018-12-16T17:26:14.349Z,1.20
2018-12-16T17:28:43.954Z,1.24
2018-12-16T17:31:13.456Z,1.16
2018-12-16T17:33:42.746Z,1.20
2018-12-16T17:36:11.834Z,1.15
2018-12-16T17:38:40.948Z,1.13
2018-12-16T17:41:10.638Z,1.55
2018-12-16T17:43:39.794Z,1.57
2018-12-16T17:46:08.992Z,1.39
2018-12-16T17:48:38.117Z,1.39
2018-12-16T17:51:07.268Z,1.31
2018-12-16T17:53:36.382Z,1.40
2018-12-16T17:56:05.707Z,1.51
2018-12-16T17:58:34.913Z,1.63
2018-12-16T18:01:04.183Z,1.87
2018-12-16T18:03:33.525Z,1.86
2018-12-16T18:06:04.455Z,1.68
2018-12-16T18:08:33.851Z,1.61
2018-12-16T18:11:02.977Z,1.76
2018-12-16T18:13:32.061Z,1.64
2018-12-16T18:16:01.177Z,1.57
2018-12-16T18:18:30.280Z,1.73
2018-12-16T18:20:59.411Z,1.66
2018-12-16T18:23:29.845Z,1.59
2018-12-16T18:25:59.581Z,1.79
2018-12-16T18:28:28.689Z,1.54
2018-12-16T18:30:57.783Z,1.60
2018-12-16T18:33:26.984Z,1.57
2018-12-16T18:35:56.165Z,1.59
2018-12-16T18:38:25.327Z,1.52
2018-12-16T18:40:54.567Z,1.76
2018-12-16T18:43:23.637Z,1.85
2018-12-16T18:45:52.795Z,1.78
2018-12-16T18:48:21.870Z,1.71
2018-12-16T18:50:53.091Z,1.47
2018-12-16T18:53:22.167Z,1.28
2018-12-16T18:55:51.261Z,1.31
2018-12-16T18:58:20.378Z,1.37
2018-12-16T19:00:49.579Z,1.19
2018-12-16T19:03:18.682Z,1.14
2018-12-16T19:05:47.792Z,1.11
2018-12-16T19:08:16.920Z,1.10
2018-12-16T19:10:46.015Z,0.92
2018-12-16T19:13:15.363Z,0.82
2018-12-16T19:15:44.648Z,0.73
2018-12-16T19:18:13.858Z,0.77
2018-12-16T19:20:43.082Z,0.75
2018-12-16T19:23:12.287Z,0.88
2018-12-16T19:25:42.290Z,0.97
2018-12-16T19:28:11.594Z,0.63
2018-12-16T19:30:40.720Z,0.73
2018-12-16T19:33:09.830Z,0.37
2018-12-16T19:35:39.630Z,0.22
2018-12-16T19:38:08.782Z,0.12
2018-12-16T19:40:38.056Z,0.12
2018-12-16T19:43:07.353Z,0.70
2018-12-16T19:45:36.484Z,0.66
2018-12-16T19:48:05.953Z,0.30
2018-12-16T19:50:35.368Z,0.30
2018-12-16T19:53:04.720Z,0.47
2018-12-16T19:55:33.789Z,0.58
2018-12-16T19:58:02.973Z,0.20
2018-12-16T20:00:32.088Z,-0.03
2018-12-16T20:03:01.285Z,-0.28
2018-12-16T20:05:32.416Z,-0.32
2018-12-16T20:08:01.534Z,-0.30
2018-12-16T20:10:30.635Z,-0.09
2018-12-16T20:12:59.948Z,-0.26
2018-12-16T20:15:29.124Z,-0.35
2018-12-16T20:17:58.232Z,-0.35
2018-12-16T20:20:28.307Z,-0.09
2018-12-16T20:22:57.635Z,0.01
2018-12-16T20:25:26.887Z,0.11
2018-12-16T20:27:56.180Z,0.09
2018-12-16T20:30:25.287Z,0.20
2018-12-16T20:32:54.387Z,0.42
2018-12-16T20:35:23.906Z,0.24
2018-12-16T20:37:53.389Z,0.15
2018-12-16T20:40:22.630Z,0.36
2018-12-16T20:42:51.801Z,0.23
2018-12-16T20:45:21.112Z,0.72
2018-12-16T20:47:50.212Z,0.70
2018-12-16T20:50:19.287Z,0.58
2018-12-16T20:52:48.395Z,0.63
2018-12-16T20:55:17.508Z,0.54
2018-12-16T20:57:48.473Z,0.57
2018-12-16T21:00:17.583Z,0.69
2018-12-16T21:02:46.695Z,0.92
2018-12-16T21:05:15.771Z,1.00
2018-12-16T21:07:44.995Z,1.08
2018-12-16T21:10:14.187Z,0.94
2018-12-16T21:12:48.678Z,0.83
2018-12-16T21:15:23.019Z,0.69
2018-12-16T21:17:57.579Z,0.58
2018-12-16T21:20:26.655Z,0.46
2018-12-16T21:22:55.755Z,0.64
2018-12-16T21:25:24.900Z,0.52
2018-12-16T21:27:53.986Z,0.62
2018-12-16T21:30:23.373Z,0.71
2018-12-16T21:32:52.503Z,0.66
2018-12-16T21:35:21.614Z,0.79
2018-12-16T21:37:51.378Z,0.65
2018-12-16T21:40:27.051Z,0.51
2018-12-16T21:42:56.169Z,0.39
2018-12-16T21:45:25.351Z,0.31
2018-12-16T21:47:54.476Z,0.40
2018-12-16T21:50:23.992Z,0.27
2018-12-16T21:52:53.079Z,0.24
2018-12-16T21:55:22.197Z,0.22
2018-12-16T21:57:51.398Z,0.19
2018-12-16T22:00:20.599Z,0.13
2018-12-16T22:02:49.739Z,-0.02
2018-12-16T22:05:20.887Z,-0.22
2018-12-16T22:07:50.595Z,-0.30
2018-12-16T22:10:19.965Z,-0.30
2018-12-16T22:12:49.673Z,-0.29
2018-12-16T22:15:18.839Z,-0.16
2018-12-16T22:17:48.255Z,-0.16
2018-12-16T22:20:17.421Z,-0.35
2018-12-16T22:22:46.669Z,-0.43
2018-12-16T22:25:15.905Z,-0.50
2018-12-16T22:27:45.133Z,-0.48
2018-12-16T22:30:14.332Z,-0.44
2018-12-16T22:32:43.551Z,-0.45
2018-12-16T22:35:12.897Z,-0.74
2018-12-16T22:37:42.049Z,-0.66
2018-12-16T22:40:11.399Z,-0.75
2018-12-16T22:42:40.930Z,-0.77
2018-12-16T22:45:10.134Z,-0.81
2018-12-16T22:47:39.464Z,-0.82
2018-12-16T22:50:08.928Z,-0.92
2018-12-16T22:52:38.972Z,-0.99
2018-12-16T22:55:08.198Z,-1.00
2018-12-16T22:57:37.363Z,-1.07
2018-12-16T23:00:10.667Z,-1.06
2018-12-16T23:02:39.914Z,-1.05
2018-12-16T23:05:09.348Z,-1.22
2018-12-16T23:07:38.545Z,-1.18
2018-12-16T23:10:08.154Z,-1.22
2018-12-16T23:12:37.298Z,-1.30
2018-12-16T23:15:07.759Z,-1.17
2018-12-16T23:17:36.895Z,-1.26
2018-12-16T23:20:12.101Z,-1.22
2018-12-16T23:22:41.316Z,-1.18
2018-12-16T23:25:11.019Z,-1.14
2018-12-16T23:27:40.179Z,-1.10
2018-12-16T23:30:10.235Z,-1.12
2018-12-16T23:32:39.495Z,-1.13
2018-12-16T23:35:08.896Z,-1.12
2018-12-16T23:37:39.525Z,-1.11
2018-12-16T23:40:08.848Z,-1.19
2018-12-16T23:42:37.977Z,-1.09
2018-12-16T23:45:08.668Z,-1.11
2018-12-16T23:47:37.775Z,-1.09
2018-12-16T23:50:07.821Z,-1.10
2018-12-16T23:52:36.929Z,-1.16
2018-12-16T23:55:06.323Z,-1.18
2018-12-16T23:57:35.854Z,-1.15
